Time;durP1;ratioP1;P1;durP2;ratioP2;P2;SDS_P1;SDS_P2;PMS_P1;PMS_P2;Temp;Humidity;BMP_temperature;BMP_pressure;BME280_temperature;BME280_humidity;BME280_pressure;Samples;Min_cycle;Max_cycle;Signal;HPM_P1;HPM_P2
2022/02/13 00:00:26;;;;;;;21.12;10.30;;;;;;;-1.89;64.59;100810.64;1725813;82;20976;-78
2022/02/13 00:02:54;;;;;;;26.23;10.15;;;;;;;-1.89;64.69;100808.99;1727554;82;21016;-79
2022/02/13 00:05:21;;;;;;;31.48;11.83;;;;;;;-1.89;65.73;100806.45;1726670;82;20996;-79
2022/02/13 00:07:47;;;;;;;32.13;11.88;;;;;;;-1.87;66.56;100816.70;1717936;82;21347;-79
2022/02/13 00:10:14;;;;;;;32.75;12.20;;;;;;;-1.88;66.24;100821.33;1719461;82;21555;-79
2022/02/13 00:12:41;;;;;;;32.90;11.63;;;;;;;-1.90;65.73;100808.50;1723438;83;21463;-79
2022/02/13 00:15:08;;;;;;;23.87;10.55;;;;;;;-1.92;65.86;100810.09;1723291;82;21020;-78
2022/02/13 00:17:35;;;;;;;25.90;10.75;;;;;;;-1.94;65.46;100819.73;1720218;82;21526;-79
2022/02/13 00:20:04;;;;;;;29.12;12.65;;;;;;;-1.96;66.03;100812.41;1719715;82;20951;-78
2022/02/13 00:22:30;;;;;;;31.37;12.55;;;;;;;-2.01;65.66;100818.14;1723543;83;21027;-80
2022/02/13 00:24:57;;;;;;;29.10;11.65;;;;;;;-2.08;66.87;100816.45;1722921;82;20991;-79
2022/02/13 00:27:24;;;;;;;40.92;15.30;;;;;;;-2.10;66.71;100811.27;1719555;83;21033;-79
2022/02/13 00:29:51;;;;;;;31.50;12.73;;;;;;;-2.22;67.92;100808.95;1715981;83;21519;-79
2022/02/13 00:32:21;;;;;;;25.62;10.38;;;;;;;-2.25;66.80;100802.80;1721975;82;21500;-78
2022/02/13 00:34:49;;;;;;;30.23;11.03;;;;;;;-2.27;67.25;100802.74;1701530;84;21681;-79
2022/02/13 00:37:16;;;;;;;38.00;13.55;;;;;;;-2.35;68.04;100801.42;1724104;82;21531;-80
2022/02/13 00:39:42;;;;;;;35.78;13.13;;;;;;;-2.35;66.99;100798.01;1716330;83;21059;-78
2022/02/13 00:42:09;;;;;;;29.63;11.88;;;;;;;-2.36;66.80;100799.69;1720761;83;21055;-80
2022/02/13 00:44:36;;;;;;;27.20;10.70;;;;;;;-2.44;68.91;100801.81;1723892;83;20959;-79
2022/02/13 00:47:02;;;;;;;29.40;10.65;;;;;;;-2.42;68.63;100798.95;1720286;82;20994;-78
2022/02/13 00:49:29;;;;;;;18.15;8.45;;;;;;;-2.42;68.37;100804.45;1718935;83;20994;-79
2022/02/13 00:51:55;;;;;;;24.82;11.28;;;;;;;-2.46;68.75;100795.77;1720636;82;20952;-78
2022/02/13 00:54:22;;;;;;;22.65;9.13;;;;;;;-2.42;67.29;100789.17;1724631;83;21182;-78
2022/02/13 00:56:48;;;;;;;24.98;11.03;;;;;;;-2.44;68.16;100778.89;1720282;82;21007;-78
2022/02/13 00:59:15;;;;;;;23.18;10.20;;;;;;;-2.43;68.16;100778.11;1723477;82;21043;-79
2022/02/13 01:01:41;;;;;;;23.47;8.45;;;;;;;-2.48;68.57;100771.02;1711723;83;21731;-78
2022/02/13 01:04:08;;;;;;;22.20;9.63;;;;;;;-2.49;68.34;100775.61;1724051;83;21003;-78
2022/02/13 01:06:34;;;;;;;25.37;9.13;;;;;;;-2.46;67.89;100765.60;1719615;83;21018;-79
2022/02/13 01:09:01;;;;;;;25.12;9.80;;;;;;;-2.49;68.24;100767.56;1727643;82;20999;-78
2022/02/13 01:11:27;;;;;;;31.95;12.05;;;;;;;-2.55;68.15;100767.23;1730366;83;21478;-77
2022/02/13 01:13:54;;;;;;;26.77;10.82;;;;;;;-2.57;68.93;100752.67;1730393;83;21007;-79
2022/02/13 01:16:21;;;;;;;32.15;9.68;;;;;;;-2.54;67.70;100752.86;1730773;82;20966;-78
2022/02/13 01:18:48;;;;;;;36.65;11.12;;;;;;;-2.61;69.04;100754.17;1728924;82;20960;-78
2022/02/13 01:21:14;;;;;;;29.18;11.20;;;;;;;-2.63;67.97;100754.48;1730448;83;21040;-78
2022/02/13 01:23:42;;;;;;;22.50;8.13;;;;;;;-2.65;68.21;100751.84;1730150;82;20984;-77
2022/02/13 01:26:11;;;;;;;32.38;11.08;;;;;;;-2.71;68.83;100745.16;1730442;82;21009;-78
2022/02/13 01:28:39;;;;;;;33.30;9.75;;;;;;;-2.75;69.34;100745.78;1727987;83;21031;-78
2022/02/13 01:31:07;;;;;;;26.25;11.38;;;;;;;-2.75;70.04;100740.69;1730263;82;21039;-79
2022/02/13 01:33:35;;;;;;;24.45;9.33;;;;;;;-2.73;69.97;100739.51;1730285;83;21025;-79
2022/02/13 01:36:04;;;;;;;26.87;10.80;;;;;;;-2.74;69.11;100733.95;1730404;82;21009;-77
2022/02/13 01:38:31;;;;;;;27.45;10.60;;;;;;;-2.72;68.55;100735.78;1730347;83;21012;-79
2022/02/13 01:40:58;;;;;;;23.07;9.33;;;;;;;-2.74;68.50;100739.91;1730577;82;21006;-79
2022/02/13 01:43:25;;;;;;;23.60;9.45;;;;;;;-2.81;70.29;100732.72;1730409;83;21118;-79
2022/02/13 01:45:52;;;;;;;36.53;11.40;;;;;;;-2.83;69.61;100729.22;1730130;83;21838;-79
2022/02/13 01:48:18;;;;;;;65.17;22.60;;;;;;;-2.86;70.57;100731.20;1730275;83;21036;-77
2022/02/13 01:50:50;;;;;;;24.05;10.78;;;;;;;-2.85;69.87;100721.89;1730324;83;20984;-79
2022/02/13 01:53:18;;;;;;;25.45;9.70;;;;;;;-2.81;68.46;100730.17;1726586;82;21472;-79
2022/02/13 01:55:47;;;;;;;18.77;8.05;;;;;;;-2.87;69.16;100730.70;1730406;82;21480;-79
2022/02/13 01:58:14;;;;;;;26.02;9.25;;;;;;;-2.88;69.45;100726.83;1730587;83;21572;-78
2022/02/13 02:00:40;;;;;;;30.62;9.20;;;;;;;-2.86;70.58;100727.80;1730222;83;21043;-79
2022/02/13 02:03:07;;;;;;;32.20;10.72;;;;;;;-2.85;70.14;100729.53;1730641;83;21015;-80
2022/02/13 02:05:35;;;;;;;25.15;9.48;;;;;;;-2.84;69.25;100730.89;1726548;82;21075;-78
2022/02/13 02:08:02;;;;;;;29.92;10.75;;;;;;;-2.85;70.20;100735.48;1725568;83;21560;-78
2022/02/13 02:10:30;;;;;;;24.32;8.38;;;;;;;-2.83;69.62;100726.67;1730621;82;21070;-78
2022/02/13 02:12:57;;;;;;;25.23;9.73;;;;;;;-2.82;69.44;100734.80;1730592;82;21004;-78
2022/02/13 02:15:23;;;;;;;27.82;8.65;;;;;;;-2.84;69.69;100737.25;1731798;82;20994;-79
2022/02/13 02:17:50;;;;;;;34.65;10.93;;;;;;;-2.87;69.93;100730.70;1732723;83;21015;-78
2022/02/13 02:20:17;;;;;;;25.25;10.20;;;;;;;-2.90;69.72;100728.42;1731631;82;21041;-78
2022/02/13 02:22:56;;;;;;;22.42;9.80;;;;;;;-2.96;70.09;100731.87;1730259;82;21055;-79
2022/02/13 02:25:23;;;;;;;25.75;9.68;;;;;;;-3.05;70.14;100735.66;1727652;83;20982;-79
2022/02/13 02:27:49;;;;;;;23.32;9.35;;;;;;;-3.08;70.65;100737.19;1730898;83;21056;-78
2022/02/13 02:30:16;;;;;;;21.82;8.60;;;;;;;-3.12;70.10;100737.40;1730929;82;21470;-78
2022/02/13 02:32:42;;;;;;;26.10;9.00;;;;;;;-3.15;70.18;100748.66;1730819;82;21038;-78
2022/02/13 02:35:09;;;;;;;24.07;8.90;;;;;;;-3.13;69.46;100748.35;1722268;83;20989;-77
2022/02/13 02:37:36;;;;;;;18.87;8.38;;;;;;;-3.21;70.73;100744.50;1728860;83;20975;-78
2022/02/13 02:40:03;;;;;;;17.77;7.95;;;;;;;-3.23;70.68;100745.68;1730718;82;21046;-79
2022/02/13 02:42:29;;;;;;;20.95;7.95;;;;;;;-3.22;69.62;100750.40;1730409;83;21533;-78
2022/02/13 02:44:56;;;;;;;24.02;8.83;;;;;;;-3.23;70.32;100751.17;1730567;82;21028;-79
2022/02/13 02:47:22;;;;;;;21.37;7.75;;;;;;;-3.24;70.54;100753.25;1730652;82;20993;-79
2022/02/13 02:49:50;;;;;;;19.62;7.50;;;;;;;-3.23;68.91;100754.98;1730607;82;21019;-79
2022/02/13 02:52:18;;;;;;;23.67;8.90;;;;;;;-3.30;69.89;100747.78;1730700;83;21000;-78
2022/02/13 02:54:46;;;;;;;24.23;8.75;;;;;;;-3.34;71.77;100746.76;1730101;83;21053;-79
2022/02/13 02:57:12;;;;;;;29.57;9.50;;;;;;;-3.35;69.96;100740.31;1730603;83;21023;-78
2022/02/13 02:59:40;;;;;;;26.25;8.80;;;;;;;-3.42;71.19;100747.99;1721819;82;21546;-78
2022/02/13 03:02:07;;;;;;;24.37;8.23;;;;;;;-3.46;71.62;100745.66;1713329;83;21501;-78
2022/02/13 03:04:33;;;;;;;30.20;8.53;;;;;;;-3.46;70.26;100752.39;1729578;83;21024;-79
2022/02/13 03:07:00;;;;;;;24.12;8.63;;;;;;;-3.50;69.61;100753.91;1730636;82;21145;-78
2022/02/13 03:09:26;;;;;;;22.13;9.15;;;;;;;-3.62;70.28;100751.89;1727698;82;21055;-79
2022/02/13 03:11:53;;;;;;;27.02;9.43;;;;;;;-3.69;71.44;100745.59;1723839;83;21443;-78
2022/02/13 03:14:19;;;;;;;22.82;9.88;;;;;;;-3.68;71.24;100746.45;1721665;82;20984;-79
2022/02/13 03:16:46;;;;;;;22.15;8.95;;;;;;;-3.75;71.14;100745.63;1719347;83;20991;-79
2022/02/13 03:19:12;;;;;;;25.00;9.38;;;;;;;-3.81;70.39;100745.74;1718698;82;21434;-77
2022/02/13 03:21:39;;;;;;;26.85;8.88;;;;;;;-3.90;71.63;100744.31;1720723;83;21019;-78
2022/02/13 03:24:07;;;;;;;24.50;9.30;;;;;;;-3.93;71.68;100736.13;1719113;82;20996;-78
2022/02/13 03:26:34;;;;;;;28.60;8.23;;;;;;;-3.94;71.60;100742.02;1720555;83;20972;-79
2022/02/13 03:29:00;;;;;;;25.08;9.10;;;;;;;-3.92;71.65;100744.25;1714186;83;21051;-80
2022/02/13 03:31:27;;;;;;;18.75;7.85;;;;;;;-3.91;72.43;100743.85;1726992;82;21000;-79
2022/02/13 03:33:54;;;;;;;17.75;7.65;;;;;;;-3.91;72.57;100742.17;1714626;83;21043;-79
2022/02/13 03:36:21;;;;;;;19.87;8.73;;;;;;;-3.87;72.98;100739.44;1720225;82;20979;-78
2022/02/13 03:38:48;;;;;;;19.15;8.08;;;;;;;-3.82;72.77;100738.02;1717850;83;21292;-77
2022/02/13 03:41:14;;;;;;;29.27;8.48;;;;;;;-3.81;72.33;100739.39;1718470;82;21514;-78
2022/02/13 03:43:41;;;;;;;22.07;8.00;;;;;;;-3.75;72.15;100741.41;1719644;83;21032;-79
2022/02/13 03:46:08;;;;;;;17.73;7.70;;;;;;;-3.73;72.18;100746.20;1703745;83;21007;-79
2022/02/13 03:48:34;;;;;;;18.92;8.10;;;;;;;-3.67;72.24;100744.41;1719549;83;21022;-79
2022/02/13 03:51:00;;;;;;;19.12;7.30;;;;;;;-3.69;72.67;100734.55;1719918;82;21039;-79
2022/02/13 03:53:27;;;;;;;29.23;8.53;;;;;;;-3.66;71.23;100733.07;1704168;83;20999;-78
2022/02/13 03:55:54;;;;;;;18.60;8.40;;;;;;;-3.65;72.27;100726.31;1716426;82;21262;-78
2022/02/13 03:58:20;;;;;;;20.80;7.78;;;;;;;-3.67;72.22;100732.97;1726330;82;21015;-78
2022/02/13 04:00:46;;;;;;;22.82;10.20;;;;;;;-3.69;71.93;100739.63;1722310;82;20987;-76
2022/02/13 04:03:13;;;;;;;24.90;10.60;;;;;;;-3.74;71.92;100735.94;1720456;83;21083;-78
2022/02/13 04:05:39;;;;;;;22.73;8.73;;;;;;;-3.79;71.49;100734.41;1726276;82;20971;-78
2022/02/13 04:08:07;;;;;;;27.05;9.25;;;;;;;-3.88;72.92;100732.58;1721760;82;21018;-79
2022/02/13 04:10:34;;;;;;;19.98;7.83;;;;;;;-3.91;73.59;100732.02;1717184;83;21031;-78
2022/02/13 04:13:01;;;;;;;15.98;7.03;;;;;;;-3.91;72.84;100724.39;1722871;82;21507;-79
2022/02/13 04:15:27;;;;;;;18.73;7.03;;;;;;;-3.89;72.85;100722.81;1717436;83;21064;-78
2022/02/13 04:17:54;;;;;;;16.23;7.45;;;;;;;-3.85;73.30;100718.80;1723392;82;21043;-78
2022/02/13 04:20:21;;;;;;;24.30;8.13;;;;;;;-3.83;72.95;100721.91;1723924;82;21515;-79
2022/02/13 04:22:47;;;;;;;18.55;8.38;;;;;;;-3.80;72.54;100720.83;1718031;82;20975;-78
2022/02/13 04:25:14;;;;;;;20.00;8.08;;;;;;;-3.77;72.64;100720.12;1724570;83;21023;-77
2022/02/13 04:27:42;;;;;;;22.58;7.83;;;;;;;-3.77;71.92;100715.04;1720319;82;20972;-78
2022/02/13 04:30:10;;;;;;;20.10;8.05;;;;;;;-3.76;72.20;100707.01;1724621;82;21000;-77
2022/02/13 04:32:36;;;;;;;20.65;8.00;;;;;;;-3.72;72.26;100707.67;1719775;82;20991;-78
2022/02/13 04:35:03;;;;;;;18.10;7.33;;;;;;;-3.74;71.79;100706.33;1716843;83;21492;-78
2022/02/13 04:37:29;;;;;;;19.82;7.35;;;;;;;-3.77;72.33;100707.81;1719115;82;21071;-79
2022/02/13 04:39:56;;;;;;;20.72;8.95;;;;;;;-3.80;72.44;100705.58;1723053;82;21011;-78
2022/02/13 04:42:22;;;;;;;19.23;8.38;;;;;;;-3.79;72.58;100706.45;1720929;82;21109;-78
2022/02/13 04:44:49;;;;;;;17.20;8.23;;;;;;;-3.78;72.44;100699.69;1719377;82;21859;-79
2022/02/13 04:47:15;;;;;;;18.52;7.30;;;;;;;-3.77;72.88;100704.87;1717851;83;21004;-79
2022/02/13 04:49:41;;;;;;;20.75;8.38;;;;;;;-3.78;72.01;100704.77;1719453;82;21010;-78
2022/02/13 04:52:08;;;;;;;18.27;7.15;;;;;;;-3.80;72.63;100702.14;1719332;83;20989;-77
2022/02/13 04:54:34;;;;;;;24.90;8.23;;;;;;;-3.81;72.83;100698.73;1684242;83;21530;-78
2022/02/13 04:57:01;;;;;;;22.87;9.38;;;;;;;-3.80;72.76;100703.41;1726884;83;21031;-79
2022/02/13 04:59:35;;;;;;;20.50;8.40;;;;;;;-3.80;73.25;100694.52;1721429;82;21014;-79
2022/02/13 05:02:02;;;;;;;19.75;7.87;;;;;;;-3.78;72.92;100694.20;1719517;83;21484;-79
2022/02/13 05:04:28;;;;;;;24.23;9.68;;;;;;;-3.78;73.76;100690.80;1704184;83;21034;-79
2022/02/13 05:06:55;;;;;;;23.12;9.00;;;;;;;-3.77;73.06;100691.30;1723930;82;21452;-79
2022/02/13 05:09:21;;;;;;;22.65;9.08;;;;;;;-3.79;72.64;100692.47;1721286;82;20991;-79
2022/02/13 05:11:48;;;;;;;23.35;8.43;;;;;;;-3.83;73.06;100693.95;1730520;82;21004;-78
2022/02/13 05:14:15;;;;;;;24.55;9.13;;;;;;;-3.82;72.32;100690.63;1725885;83;21028;-79
2022/02/13 05:16:41;;;;;;;25.37;9.48;;;;;;;-3.81;72.24;100692.38;1692418;85;21003;-79
2022/02/13 05:19:08;;;;;;;25.02;10.20;;;;;;;-3.81;71.42;100700.00;1724462;83;21034;-79
2022/02/13 05:21:35;;;;;;;28.75;10.25;;;;;;;-3.83;72.16;100695.63;1732709;82;21000;-77
2022/02/13 05:24:01;;;;;;;34.35;9.73;;;;;;;-3.83;71.95;100690.54;1724277;83;21049;-78
2022/02/13 05:26:27;;;;;;;28.20;10.32;;;;;;;-3.86;71.90;100691.25;1725898;82;21480;-79
2022/02/13 05:28:54;;;;;;;25.88;11.93;;;;;;;-3.86;73.09;100701.41;1730473;82;21142;-78
2022/02/13 05:31:21;;;;;;;27.77;10.13;;;;;;;-3.86;74.00;100696.70;1725176;82;21533;-78
2022/02/13 05:33:47;;;;;;;20.80;8.83;;;;;;;-3.89;73.97;100704.16;1721863;82;20959;-78
2022/02/13 05:36:14;;;;;;;24.02;10.58;;;;;;;-3.87;72.65;100698.77;1726825;82;21051;-80
2022/02/13 05:38:40;;;;;;;21.02;9.18;;;;;;;-3.90;72.82;100699.48;1727491;82;21020;-80
2022/02/13 05:41:07;;;;;;;27.02;10.82;;;;;;;-3.95;73.84;100696.19;1725133;82;21018;-79
2022/02/13 05:43:33;;;;;;;29.18;10.68;;;;;;;-3.95;72.39;100693.64;1728737;82;21052;-77
2022/02/13 05:46:00;;;;;;;28.60;9.88;;;;;;;-4.03;73.97;100698.27;1724220;82;21187;-78
2022/02/13 05:48:27;;;;;;;28.67;11.38;;;;;;;-4.02;73.17;100698.37;1726187;82;21062;-79
2022/02/13 05:50:53;;;;;;;32.03;10.98;;;;;;;-4.05;73.54;100692.22;1723762;82;21120;-79
2022/02/13 05:53:20;;;;;;;22.50;10.23;;;;;;;-4.05;73.48;100699.44;1730771;82;21015;-77
2022/02/13 05:55:46;;;;;;;22.27;10.43;;;;;;;-4.05;74.15;100701.98;1723374;82;21063;-78
2022/02/13 05:58:13;;;;;;;30.95;10.58;;;;;;;-4.03;73.66;100695.33;1725991;82;21499;-78
2022/02/13 06:00:39;;;;;;;27.93;12.18;;;;;;;-4.05;75.04;100698.58;1724557;82;21013;-79
2022/02/13 06:03:05;;;;;;;24.75;10.63;;;;;;;-4.05;75.02;100694.77;1725602;82;21201;-78
2022/02/13 06:05:32;;;;;;;26.90;11.50;;;;;;;-4.04;73.48;100693.95;1728563;82;21558;-79
2022/02/13 06:07:58;;;;;;;23.22;10.13;;;;;;;-4.05;74.96;100698.58;1724161;82;20991;-79
2022/02/13 06:10:24;;;;;;;34.15;12.13;;;;;;;-4.01;73.67;100695.02;1726778;82;21017;-79
2022/02/13 06:12:51;;;;;;;28.17;10.43;;;;;;;-3.96;72.71;100700.36;1726043;82;21575;-79
2022/02/13 06:15:17;;;;;;;29.65;11.80;;;;;;;-3.99;74.46;100693.84;1731082;82;20987;-79
2022/02/13 06:17:44;;;;;;;30.40;11.22;;;;;;;-3.95;73.65;100703.80;1724288;82;21021;-78
2022/02/13 06:20:11;;;;;;;30.35;12.53;;;;;;;-4.04;74.89;100687.23;1696421;83;21162;-79
2022/02/13 06:22:39;;;;;;;29.80;12.35;;;;;;;-3.91;73.56;100697.71;1722221;82;21018;-78
2022/02/13 06:25:07;;;;;;;36.23;13.43;;;;;;;-3.88;74.53;100699.55;1723440;82;21444;-78
2022/02/13 06:27:34;;;;;;;32.23;11.80;;;;;;;-3.82;74.94;100694.81;1722032;83;21599;-79
2022/02/13 06:30:00;;;;;;;29.95;12.73;;;;;;;-3.77;74.38;100700.19;1730225;82;20976;-79
2022/02/13 06:32:27;;;;;;;29.77;11.80;;;;;;;-3.71;74.24;100699.27;1724158;82;21470;-79
2022/02/13 06:34:53;;;;;;;24.52;10.30;;;;;;;-3.71;74.24;100699.27;1724226;82;21190;-78
2022/02/13 06:37:20;;;;;;;25.65;10.43;;;;;;;-3.63;73.77;100697.64;1721671;83;21023;-79
2022/02/13 06:39:46;;;;;;;27.65;11.30;;;;;;;-3.57;73.53;100698.39;1729101;82;21043;-77
2022/02/13 06:42:13;;;;;;;31.82;11.65;;;;;;;-3.52;73.99;100703.36;1725149;82;21082;-78
2022/02/13 06:44:39;;;;;;;20.27;10.25;;;;;;;-3.46;73.64;100698.98;1726402;82;21019;-79
2022/02/13 06:47:06;;;;;;;30.88;12.53;;;;;;;-3.40;72.85;100698.09;1731609;82;21461;-78
2022/02/13 06:49:32;;;;;;;28.10;10.85;;;;;;;-3.37;72.65;100695.70;1724320;82;21029;-79
2022/02/13 06:51:59;;;;;;;23.40;9.70;;;;;;;-3.33;72.94;100700.58;1727834;82;21503;-78
2022/02/13 06:54:25;;;;;;;24.32;11.38;;;;;;;-3.34;73.59;100694.99;1720890;82;20991;-79
2022/02/13 06:56:52;;;;;;;29.70;12.23;;;;;;;-3.28;73.10;100699.18;1726947;82;20992;-79
2022/02/13 06:59:18;;;;;;;27.70;11.57;;;;;;;-3.23;73.16;100698.63;1726265;82;21571;-78
2022/02/13 07:01:45;;;;;;;23.65;10.15;;;;;;;-3.15;73.10;100694.37;1729572;82;21107;-77
2022/02/13 07:04:11;;;;;;;26.35;11.33;;;;;;;-3.06;72.73;100691.94;1722285;82;20991;-80
2022/02/13 07:06:38;;;;;;;23.67;10.80;;;;;;;-3.01;72.74;100693.05;1725656;82;21031;-79
2022/02/13 07:09:06;;;;;;;26.15;10.88;;;;;;;-2.97;72.98;100689.41;1726652;82;21031;-79
2022/02/13 07:11:34;;;;;;;26.33;10.63;;;;;;;-2.89;72.58;100686.89;1697715;83;21015;-79
2022/02/13 07:14:00;;;;;;;27.60;10.65;;;;;;;-2.84;72.88;100686.75;1691675;84;21069;-79
2022/02/13 07:16:29;;;;;;;30.95;11.15;;;;;;;-2.77;72.58;100685.41;1701078;83;21523;-78
2022/02/13 07:18:55;;;;;;;29.52;11.03;;;;;;;-2.70;72.57;100684.95;1694719;84;20979;-79
2022/02/13 07:21:21;;;;;;;23.45;9.45;;;;;;;-2.60;71.91;100670.23;1703610;83;22201;-79
2022/02/13 07:23:48;;;;;;;22.70;10.10;;;;;;;-2.55;71.67;100669.59;1669625;84;21534;-78
2022/02/13 07:26:14;;;;;;;26.27;11.45;;;;;;;-2.49;71.67;100658.45;1674919;84;21026;-80
2022/02/13 07:28:59;;;;;;;23.95;10.65;;;;;;;-2.40;71.62;100662.36;1693938;83;21093;-80
2022/02/13 07:31:31;;;;;;;31.55;13.22;;;;;;;-2.31;71.48;100661.08;1705715;83;20968;-78
2022/02/13 07:33:58;;;;;;;24.07;11.93;;;;;;;-2.22;71.28;100666.27;1696440;83;20999;-79
2022/02/13 07:36:26;;;;;;;32.05;10.82;;;;;;;-2.13;70.83;100670.07;1679022;83;21014;-78
2022/02/13 07:38:53;;;;;;;22.02;9.05;;;;;;;-2.07;70.93;100658.54;1687029;84;21045;-79
2022/02/13 07:41:20;;;;;;;20.12;8.60;;;;;;;-1.97;70.64;100653.88;1689900;84;21035;-79
2022/02/13 07:43:48;;;;;;;23.50;8.85;;;;;;;-1.91;70.34;100654.19;1692806;83;21502;-78
2022/02/13 07:46:15;;;;;;;26.80;11.33;;;;;;;-1.86;70.05;100651.08;1694264;83;21014;-78
2022/02/13 07:48:42;;;;;;;27.52;9.33;;;;;;;-1.81;69.98;100652.19;1704008;83;21032;-79
2022/02/13 07:51:11;;;;;;;32.73;9.63;;;;;;;-1.73;70.00;100647.47;1689795;83;20999;-78
2022/02/13 07:53:40;;;;;;;20.48;8.18;;;;;;;-1.65;69.89;100646.55;1689443;84;21007;-79
2022/02/13 07:56:07;;;;;;;25.25;9.08;;;;;;;-1.57;69.54;100646.55;1696183;83;21043;-78
2022/02/13 07:58:35;;;;;;;26.55;9.90;;;;;;;-1.52;69.28;100639.97;1705647;83;21015;-80
2022/02/13 08:01:06;;;;;;;28.20;10.48;;;;;;;-1.45;69.33;100638.20;1690728;84;21033;-78
2022/02/13 08:03:36;;;;;;;27.60;9.83;;;;;;;-1.34;69.14;100640.39;1693579;83;20999;-78
2022/02/13 08:06:04;;;;;;;26.00;9.23;;;;;;;-1.29;68.90;100637.26;1691978;83;21003;-80
2022/02/13 08:08:31;;;;;;;30.60;10.72;;;;;;;-1.24;68.87;100640.02;1689287;84;21020;-80
2022/02/13 08:10:57;;;;;;;22.13;10.13;;;;;;;-1.16;68.85;100639.97;1714688;83;21006;-80
2022/02/13 08:13:24;;;;;;;23.73;10.40;;;;;;;-1.09;68.89;100638.19;1723845;83;21050;-79
2022/02/13 08:15:51;;;;;;;27.80;10.35;;;;;;;-0.97;69.02;100634.47;1728590;82;21030;-78
2022/02/13 08:18:18;;;;;;;22.30;9.78;;;;;;;-0.85;68.74;100628.63;1669705;84;21036;-78
2022/02/13 08:20:44;;;;;;;19.57;9.00;;;;;;;-0.78;68.32;100622.98;1729330;82;20980;-78
2022/02/13 08:23:11;;;;;;;24.47;10.00;;;;;;;-0.69;68.08;100627.23;1707912;82;21010;-79
2022/02/13 08:25:39;;;;;;;19.17;8.50;;;;;;;-0.57;68.06;100622.20;1724874;82;21024;-80
2022/02/13 08:28:06;;;;;;;23.32;9.25;;;;;;;-0.46;67.80;100615.87;1724253;82;20989;-78
2022/02/13 08:30:32;;;;;;;24.67;9.65;;;;;;;-0.34;67.39;100604.89;1724731;82;21055;-79
2022/02/13 08:32:59;;;;;;;27.05;8.65;;;;;;;-0.24;67.14;100610.89;1723397;82;20976;-81
2022/02/13 08:35:26;;;;;;;23.35;8.58;;;;;;;-0.15;67.04;100606.98;1725569;82;21012;-79
2022/02/13 08:37:53;;;;;;;17.23;7.25;;;;;;;-0.07;66.84;100606.89;1710568;82;21030;-79
2022/02/13 08:40:20;;;;;;;18.48;9.05;;;;;;;-0.01;66.73;100599.47;1716645;82;21012;-79
2022/02/13 08:42:46;;;;;;;21.93;9.75;;;;;;;0.06;66.33;100598.94;1730026;82;21024;-79
2022/02/13 08:45:13;;;;;;;18.48;8.23;;;;;;;0.10;66.25;100595.69;1723993;82;20995;-80
2022/02/13 08:47:39;;;;;;;24.35;10.75;;;;;;;0.17;66.44;100597.67;1729151;82;21015;-78
2022/02/13 08:50:06;;;;;;;20.43;8.93;;;;;;;0.28;66.36;100593.39;1729104;82;20999;-80
2022/02/13 08:52:33;;;;;;;26.62;10.43;;;;;;;0.34;66.24;100589.41;1728616;82;21005;-79
2022/02/13 08:54:59;;;;;;;17.62;8.25;;;;;;;0.38;66.25;100588.72;1722580;82;21027;-79
2022/02/13 08:57:26;;;;;;;26.48;10.05;;;;;;;0.44;66.06;100588.09;1727657;82;20940;-79
2022/02/13 08:59:52;;;;;;;24.77;9.40;;;;;;;0.47;66.15;100584.36;1729522;82;21011;-80
2022/02/13 09:02:19;;;;;;;25.60;9.65;;;;;;;0.56;65.92;100584.73;1726663;82;21508;-80
2022/02/13 09:04:45;;;;;;;23.22;9.93;;;;;;;0.65;66.02;100584.62;1732379;82;20997;-79
2022/02/13 09:07:12;;;;;;;20.72;9.28;;;;;;;0.73;65.74;100590.91;1728156;82;20976;-81
2022/02/13 09:09:43;;;;;;;28.17;10.82;;;;;;;0.78;65.71;100579.17;1728009;82;21004;-78
2022/02/13 09:12:07;;;;;;;55.85;17.20;;;;;;;0.89;66.06;100576.58;1725331;82;21574;-79
2022/02/13 09:14:34;;;;;;;29.90;9.95;;;;;;;1.01;65.34;100574.03;1726218;82;21052;-79
2022/02/13 09:17:00;;;;;;;38.98;14.90;;;;;;;1.07;65.38;100571.27;1722458;82;21030;-80
2022/02/13 09:19:28;;;;;;;26.87;10.78;;;;;;;1.18;65.67;100571.69;1727739;82;21025;-79
2022/02/13 09:21:55;;;;;;;47.80;15.43;;;;;;;1.30;65.02;100572.54;1724504;82;21580;-82
2022/02/13 09:24:23;;;;;;;24.90;11.08;;;;;;;1.43;65.08;100568.70;1698620;83;21050;-80
2022/02/13 09:26:49;;;;;;;21.95;9.65;;;;;;;1.52;64.34;100571.61;1700784;83;21428;-78
2022/02/13 09:29:15;;;;;;;20.25;8.83;;;;;;;1.62;64.33;100563.41;1727593;82;21467;-79
2022/02/13 09:31:42;;;;;;;29.90;11.15;;;;;;;1.72;63.89;100569.31;1727690;82;21017;-78
2022/02/13 09:34:08;;;;;;;25.27;10.85;;;;;;;1.76;63.81;100563.89;1725264;82;21007;-79
2022/02/13 09:36:35;;;;;;;24.95;11.35;;;;;;;1.88;64.27;100563.43;1726373;82;21494;-77
2022/02/13 09:39:02;;;;;;;23.30;10.75;;;;;;;2.01;63.20;100556.61;1724871;82;20994;-80
2022/02/13 09:41:28;;;;;;;24.10;8.73;;;;;;;2.10;63.45;100559.88;1723969;82;20995;-79
2022/02/13 09:43:56;;;;;;;16.48;7.75;;;;;;;2.15;61.94;100554.08;1724725;82;20993;-79
2022/02/13 09:46:24;;;;;;;21.17;8.00;;;;;;;2.18;61.24;100564.84;1720651;82;21099;-79
2022/02/13 09:48:55;;;;;;;14.30;6.97;;;;;;;2.25;62.16;100559.48;1725019;82;21471;-81
2022/02/13 09:51:22;;;;;;;17.40;7.83;;;;;;;2.31;61.83;100556.72;1727332;82;21372;-79
2022/02/13 09:53:49;;;;;;;20.57;8.00;;;;;;;2.36;60.48;100551.73;1722521;82;21018;-80
2022/02/13 09:56:17;;;;;;;20.40;8.90;;;;;;;2.44;60.26;100545.13;1729815;82;20981;-80
2022/02/13 09:58:43;;;;;;;22.00;9.03;;;;;;;2.51;60.89;100543.64;1723967;82;20972;-80
2022/02/13 10:01:11;;;;;;;16.70;7.67;;;;;;;2.60;61.12;100534.92;1735586;82;21039;-79
2022/02/13 10:03:44;;;;;;;17.25;7.70;;;;;;;2.47;59.43;100495.19;1723246;83;21075;-80
2022/02/13 10:06:22;;;;;;;16.13;8.50;;;;;;;2.76;60.93;100528.55;1728471;82;21559;-81
2022/02/13 10:08:51;;;;;;;22.65;8.73;;;;;;;2.82;59.56;100527.44;1722585;83;20972;-80
2022/02/13 10:11:33;;;;;;;17.62;8.30;;;;;;;2.90;59.50;100516.10;1726945;82;21028;-79
2022/02/13 10:14:15;;;;;;;23.83;9.58;;;;;;;3.01;60.44;100519.86;1689615;85;20999;-79
2022/02/13 10:16:49;;;;;;;18.27;8.83;;;;;;;3.08;59.22;100505.05;1729116;82;21516;-82
2022/02/13 10:19:20;;;;;;;22.32;9.15;;;;;;;3.17;59.22;100501.46;1723960;82;21017;-81
2022/02/13 10:21:50;;;;;;;18.50;8.20;;;;;;;3.30;59.35;100497.93;1728405;82;20961;-82
2022/02/13 10:24:23;;;;;;;27.90;8.33;;;;;;;3.42;58.54;100489.67;1724318;83;21006;-81
2022/02/13 10:27:12;;;;;;;15.00;6.95;;;;;;;3.54;58.63;100493.84;1726104;82;21023;-81
2022/02/13 10:29:45;;;;;;;15.80;8.28;;;;;;;3.62;58.50;100481.19;1728937;82;20990;-80
2022/02/13 10:32:30;;;;;;;16.70;7.85;;;;;;;3.73;57.74;100478.48;1722368;82;21071;-82
2022/02/13 10:35:07;;;;;;;16.82;7.35;;;;;;;3.84;56.20;100471.91;1722112;83;21471;-80
2022/02/13 10:37:54;;;;;;;20.30;9.30;;;;;;;3.98;57.90;100459.38;1730830;82;20993;-82
2022/02/13 10:40:24;;;;;;;17.12;8.00;;;;;;;4.07;57.19;100456.12;1722204;82;20984;-80
2022/02/13 10:43:07;;;;;;;18.65;8.58;;;;;;;4.18;55.81;100459.40;1726943;82;21063;-80
2022/02/13 10:45:38;;;;;;;24.18;9.65;;;;;;;4.31;55.19;100459.24;1727356;82;20990;-80
2022/02/13 10:48:08;;;;;;;22.65;9.63;;;;;;;4.36;56.20;100447.78;1725645;82;20984;-81
2022/02/13 10:50:37;;;;;;;15.88;8.00;;;;;;;4.53;57.05;100447.70;1725373;82;21064;-82
2022/02/13 10:53:07;;;;;;;20.30;8.93;;;;;;;4.73;56.02;100445.95;1728373;82;20981;-81
2022/02/13 10:55:37;;;;;;;15.93;7.62;;;;;;;4.88;53.63;100442.41;1726894;82;21010;-80
2022/02/13 10:58:04;;;;;;;14.98;7.70;;;;;;;5.07;55.96;100433.73;1728798;82;21480;-82
2022/02/13 11:00:31;;;;;;;15.03;6.95;;;;;;;5.19;54.14;100432.66;1724074;83;21502;-81
2022/02/13 11:03:04;;;;;;;13.55;7.28;;;;;;;5.23;53.38;100430.58;1725249;82;21040;-82
2022/02/13 11:05:32;;;;;;;15.83;7.97;;;;;;;5.38;52.45;100430.86;1729353;82;21011;-82
2022/02/13 11:08:07;;;;;;;16.90;7.95;;;;;;;5.53;53.95;100426.39;1725529;82;20961;-78
2022/02/13 11:10:41;;;;;;;15.98;7.97;;;;;;;5.67;54.22;100426.63;1729724;82;21570;-79
2022/02/13 11:13:12;;;;;;;16.65;7.15;;;;;;;5.70;53.02;100418.91;1739742;82;21163;-79
2022/02/13 11:15:42;;;;;;;14.40;7.00;;;;;;;5.77;52.77;100416.03;1755225;82;21036;-79
2022/02/13 11:18:11;;;;;;;12.20;6.03;;;;;;;5.85;51.40;100410.56;1757808;81;21025;-79